createdAt,value
2022-11-20T00:02:25.306Z,4.20
2022-11-20T00:07:27.264Z,4.20
2022-11-20T00:12:29.180Z,4.20
2022-11-20T00:17:31.070Z,4.30
2022-11-20T00:22:32.948Z,4.30
2022-11-20T00:27:34.708Z,4.20
2022-11-20T00:32:36.521Z,4.20
2022-11-20T00:37:38.273Z,4.20
2022-11-20T00:42:40.022Z,4.30
2022-11-20T00:47:41.846Z,4.20
2022-11-20T00:52:43.672Z,4.20
2022-11-20T00:57:45.484Z,4.20
2022-11-20T01:02:47.310Z,4.20
2022-11-20T01:07:49.239Z,4.20
2022-11-20T01:13:11.090Z,4.30
2022-11-20T01:18:12.844Z,4.20
2022-11-20T01:23:14.558Z,4.30
2022-11-20T01:28:16.329Z,4.30
2022-11-20T01:33:18.146Z,4.30
2022-11-20T01:38:21.257Z,4.30
2022-11-20T01:43:23.984Z,4.20
2022-11-20T01:48:33.241Z,4.20
2022-11-20T01:53:37.889Z,4.30
2022-11-20T01:58:45.615Z,4.30
2022-11-20T02:03:48.777Z,4.30
2022-11-20T02:08:51.681Z,4.30
2022-11-20T02:13:53.953Z,4.20
2022-11-20T02:18:58.402Z,4.20
2022-11-20T02:24:06.309Z,4.30
2022-11-20T02:29:08.207Z,4.30
2022-11-20T02:34:10.563Z,4.30
2022-11-20T02:39:14.511Z,4.30
2022-11-20T02:44:16.308Z,4.20
2022-11-20T02:49:18.181Z,4.10
2022-11-20T02:54:20.248Z,4.20
2022-11-20T02:59:22.556Z,4.30
2022-11-20T03:04:24.612Z,4.30
2022-11-20T03:09:26.366Z,4.30
2022-11-20T03:14:28.203Z,4.20
2022-11-20T03:19:30.029Z,4.10
2022-11-20T03:24:31.780Z,4.20
2022-11-20T03:29:33.706Z,4.30
2022-11-20T03:34:35.444Z,4.30
2022-11-20T03:39:37.185Z,4.30
2022-11-20T03:44:38.914Z,4.40
2022-11-20T03:49:40.635Z,4.40
2022-11-20T03:54:42.362Z,4.40
2022-11-20T03:59:44.107Z,4.30
2022-11-20T04:04:45.861Z,4.30
2022-11-20T04:09:47.603Z,4.30
2022-11-20T04:14:49.313Z,4.30
2022-11-20T04:19:51.065Z,4.30
2022-11-20T04:24:52.828Z,4.30
2022-11-20T04:29:54.571Z,4.40
2022-11-20T04:34:56.295Z,4.40
2022-11-20T04:39:58.054Z,4.30
2022-11-20T04:44:59.937Z,4.40
2022-11-20T04:50:01.787Z,4.20
2022-11-20T04:55:04.122Z,4.20
2022-11-20T05:00:06.535Z,4.20
2022-11-20T05:05:08.990Z,4.20
2022-11-20T05:10:10.924Z,4.10
2022-11-20T05:15:12.869Z,4.10
2022-11-20T05:20:14.864Z,4.10
2022-11-20T05:25:16.693Z,4.10
2022-11-20T05:30:18.455Z,4.20
2022-11-20T05:35:20.193Z,4.20
2022-11-20T05:40:21.944Z,4.30
2022-11-20T05:45:23.899Z,4.40
2022-11-20T05:50:25.651Z,4.40
2022-11-20T05:55:28.572Z,4.50
2022-11-20T06:00:30.323Z,4.40
2022-11-20T06:05:32.091Z,4.50
2022-11-20T06:10:33.832Z,4.50
2022-11-20T06:15:35.639Z,4.50
2022-11-20T06:20:41.935Z,4.40
2022-11-20T06:25:44.549Z,4.40
2022-11-20T06:30:47.150Z,4.50
2022-11-20T06:35:48.881Z,4.50
2022-11-20T06:40:50.646Z,4.50
2022-11-20T06:45:56.976Z,4.50
2022-11-20T06:50:59.196Z,4.50
2022-11-20T06:56:00.989Z,4.50
2022-11-20T07:01:05.826Z,4.40
2022-11-20T07:06:08.291Z,4.50
2022-11-20T07:11:13.218Z,4.60
2022-11-20T07:16:15.038Z,4.60
2022-11-20T07:21:17.033Z,4.50
2022-11-20T07:26:18.797Z,4.50
2022-11-20T07:31:20.685Z,4.60
2022-11-20T07:36:22.789Z,4.60
2022-11-20T07:41:24.540Z,4.80
2022-11-20T07:46:26.408Z,4.80
2022-11-20T07:51:28.554Z,4.90
2022-11-20T07:56:30.409Z,4.90
2022-11-20T08:01:32.231Z,5.10
2022-11-20T08:06:34.134Z,4.90
2022-11-20T08:11:54.440Z,5.10
2022-11-20T08:16:56.190Z,5.10
2022-11-20T08:21:57.984Z,5.10
2022-11-20T08:27:00.193Z,5.20
2022-11-20T08:32:01.960Z,5.40
2022-11-20T08:37:04.366Z,5.50
2022-11-20T08:42:09.483Z,5.50
2022-11-20T08:47:11.292Z,5.60
2022-11-20T08:52:13.022Z,5.60
2022-11-20T08:57:14.971Z,5.60
2022-11-20T09:02:16.698Z,5.70
2022-11-20T09:07:18.480Z,5.80
2022-11-20T09:12:20.236Z,5.80
2022-11-20T09:17:22.049Z,5.90
2022-11-20T09:22:23.784Z,6.00
2022-11-20T09:27:25.605Z,5.90
2022-11-20T09:32:27.339Z,6.00
2022-11-20T09:37:29.247Z,6.10
2022-11-20T09:42:55.456Z,6.10
2022-11-20T09:48:21.926Z,6.20
2022-11-20T09:53:26.779Z,6.30
2022-11-20T09:58:51.072Z,6.50
2022-11-20T10:04:14.688Z,6.40
2022-11-20T10:09:28.730Z,6.60
2022-11-20T10:15:03.691Z,6.70
2022-11-20T10:20:17.422Z,6.80
2022-11-20T10:25:52.995Z,6.80
2022-11-20T10:31:03.604Z,6.90
2022-11-20T10:36:35.007Z,6.90
2022-11-20T10:41:42.666Z,7.00
2022-11-20T10:46:47.591Z,7.10
2022-11-20T10:51:52.419Z,7.20
2022-11-20T10:57:01.163Z,7.40
2022-11-20T11:02:03.577Z,7.50
2022-11-20T11:07:28.964Z,7.60
2022-11-20T11:12:30.846Z,7.80
2022-11-20T11:17:34.656Z,7.90
2022-11-20T11:23:05.388Z,8.00
2022-11-20T11:28:19.348Z,8.10
2022-11-20T11:33:27.038Z,8.10
2022-11-20T11:38:39.695Z,8.10
2022-11-20T11:44:14.169Z,8.20
2022-11-20T11:49:21.666Z,8.20
2022-11-20T11:54:44.405Z,8.20
2022-11-20T12:00:01.494Z,8.20
2022-11-20T12:05:27.586Z,8.30
2022-11-20T12:11:11.545Z,8.40
2022-11-20T12:16:16.093Z,8.40
2022-11-20T12:21:24.273Z,8.40
2022-11-20T12:27:00.037Z,8.40
2022-11-20T12:32:16.757Z,8.20
2022-11-20T12:37:42.742Z,8.10
2022-11-20T12:43:17.944Z,8.00
2022-11-20T12:48:46.068Z,8.00
2022-11-20T12:53:57.600Z,7.90
2022-11-20T12:59:30.340Z,7.80
2022-11-20T13:04:38.266Z,7.80
2022-11-20T13:09:48.825Z,7.70
2022-11-20T13:15:32.278Z,7.70
2022-11-20T13:20:35.228Z,7.70
2022-11-20T13:25:39.638Z,7.80
2022-11-20T13:30:55.215Z,7.80
2022-11-20T13:36:00.436Z,7.80
2022-11-20T13:41:25.460Z,7.80
2022-11-20T13:46:46.723Z,7.80
2022-11-20T13:51:54.376Z,7.70
2022-11-20T13:57:21.112Z,7.70
2022-11-20T14:02:27.835Z,7.60
2022-11-20T14:07:43.598Z,7.60
2022-11-20T14:12:45.396Z,7.60
2022-11-20T14:17:47.139Z,7.60
2022-11-20T14:22:52.871Z,7.60
2022-11-20T14:28:00.503Z,7.60
2022-11-20T14:33:04.256Z,7.70
2022-11-20T14:38:12.764Z,7.60
2022-11-20T14:43:30.084Z,7.60
2022-11-20T14:48:57.825Z,7.70
2022-11-20T14:54:10.905Z,7.70
2022-11-20T14:59:23.374Z,7.80
2022-11-20T15:04:25.645Z,7.70
2022-11-20T15:09:27.868Z,7.80
2022-11-20T15:14:31.676Z,7.70
2022-11-20T15:19:35.325Z,7.80
2022-11-20T15:24:37.023Z,7.80
2022-11-20T15:29:38.926Z,7.80
2022-11-20T15:34:40.816Z,7.80
2022-11-20T15:39:42.543Z,7.90
2022-11-20T15:44:44.313Z,7.90
2022-11-20T15:49:46.079Z,8.10
2022-11-20T15:54:47.834Z,8.30
2022-11-20T15:59:49.612Z,8.30
2022-11-20T16:04:51.387Z,8.40
2022-11-20T16:09:53.122Z,8.40
2022-11-20T16:15:13.890Z,8.50
2022-11-20T16:20:16.576Z,8.40
2022-11-20T16:25:18.351Z,8.40
2022-11-20T16:30:20.530Z,8.50
2022-11-20T16:35:22.336Z,8.50
2022-11-20T16:40:24.547Z,8.50
2022-11-20T16:45:30.067Z,8.50
2022-11-20T16:50:34.609Z,8.40
2022-11-20T16:55:36.370Z,8.60
2022-11-20T17:00:39.165Z,8.60
2022-11-20T17:05:40.962Z,8.60
2022-11-20T17:10:42.776Z,8.60
2022-11-20T17:15:44.555Z,8.70
2022-11-20T17:20:52.516Z,8.70
2022-11-20T17:25:54.271Z,8.70
2022-11-20T17:31:03.495Z,8.70
2022-11-20T17:36:07.210Z,8.60
2022-11-20T17:41:19.721Z,8.60
2022-11-20T17:46:24.343Z,8.50
2022-11-20T17:51:32.210Z,8.40
2022-11-20T17:56:53.390Z,8.20
2022-11-20T18:01:56.799Z,8.20
2022-11-20T18:07:01.519Z,8.20
2022-11-20T18:12:03.433Z,8.20
2022-11-20T18:17:09.587Z,8.40
2022-11-20T18:22:12.720Z,8.30
2022-11-20T18:27:18.197Z,8.20
2022-11-20T18:32:23.102Z,8.20
2022-11-20T18:37:25.208Z,8.20
2022-11-20T18:42:46.699Z,8.20
2022-11-20T18:47:48.657Z,8.20
2022-11-20T18:52:50.530Z,8.00
2022-11-20T18:57:52.681Z,8.00
2022-11-20T19:02:54.716Z,8.10
2022-11-20T19:07:56.574Z,8.10
2022-11-20T19:12:59.293Z,8.20
2022-11-20T19:18:01.390Z,8.20
2022-11-20T19:23:03.176Z,8.20
2022-11-20T19:28:06.030Z,8.20
2022-11-20T19:33:08.729Z,8.20
2022-11-20T19:38:11.786Z,8.20
2022-11-20T19:43:13.586Z,8.30
2022-11-20T19:48:15.391Z,8.20
2022-11-20T19:53:18.900Z,8.10
2022-11-20T19:58:20.841Z,8.00
2022-11-20T20:03:23.447Z,8.00
2022-11-20T20:08:25.526Z,7.90
2022-11-20T20:13:27.756Z,8.00
2022-11-20T20:18:29.607Z,7.90
2022-11-20T20:23:31.622Z,7.90
2022-11-20T20:28:34.149Z,7.80
2022-11-20T20:33:37.728Z,7.90
2022-11-20T20:38:40.193Z,7.90
2022-11-20T20:44:00.317Z,7.90
2022-11-20T20:49:02.224Z,8.00
2022-11-20T20:54:05.465Z,7.90
2022-11-20T20:59:07.282Z,7.90
2022-11-20T21:04:09.419Z,7.90
2022-11-20T21:09:11.293Z,7.80
2022-11-20T21:14:13.166Z,7.70
2022-11-20T21:19:15.196Z,7.60
2022-11-20T21:24:17.007Z,7.50
2022-11-20T21:29:20.058Z,7.50
2022-11-20T21:34:22.826Z,7.40
2022-11-20T21:39:24.944Z,7.30
2022-11-20T21:44:31.343Z,7.30
2022-11-20T21:49:33.822Z,7.30
2022-11-20T21:54:36.301Z,7.30
2022-11-20T21:59:38.080Z,7.30
2022-11-20T22:04:40.031Z,7.20
2022-11-20T22:09:41.873Z,7.20
2022-11-20T22:14:44.494Z,7.20
2022-11-20T22:19:46.309Z,7.20
2022-11-20T22:24:48.115Z,7.10
2022-11-20T22:29:52.325Z,7.20
2022-11-20T22:34:54.254Z,7.20
2022-11-20T22:39:56.043Z,7.20
2022-11-20T22:44:57.930Z,7.20
2022-11-20T22:49:59.765Z,7.10
2022-11-20T22:55:01.733Z,7.10
2022-11-20T23:00:04.902Z,7.10
2022-11-20T23:05:07.067Z,7.10
2022-11-20T23:10:09.260Z,7.00
2022-11-20T23:15:11.350Z,7.00
2022-11-20T23:20:13.090Z,7.00
2022-11-20T23:25:14.896Z,7.00
2022-11-20T23:30:16.748Z,7.00
2022-11-20T23:35:18.794Z,6.90
2022-11-20T23:40:20.586Z,6.90
2022-11-20T23:45:24.387Z,6.90
2022-11-20T23:50:26.132Z,7.00
2022-11-20T23:55:28.259Z,7.10
